Time;durP1;ratioP1;P1;durP2;ratioP2;P2;SDS_P1;SDS_P2;PMS_P1;PMS_P2;Temp;Humidity;BMP_temperature;BMP_pressure;BME280_temperature;BME280_humidity;BME280_pressure;Samples;Min_cycle;Max_cycle;Signal;HPM_P1;HPM_P2
2022/06/02 00:01:21;;;;;;;6.00;3.40;;;24.70;57.70;;;;;;5036268;28;20476;-67
2022/06/02 00:04:05;;;;;;;5.35;3.13;;;24.60;57.80;;;;;;5036089;28;20026;-66
2022/06/02 00:06:55;;;;;;;5.45;3.30;;;24.60;57.90;;;;;;5035617;28;20026;-64
2022/06/02 00:09:39;;;;;;;4.32;3.20;;;24.50;58.30;;;;;;5036092;28;20464;-66
2022/06/02 00:12:23;;;;;;;4.18;3.08;;;24.40;58.30;;;;;;5036147;28;20032;-66
2022/06/02 00:14:52;;;;;;;;;;;24.40;58.30;;;;;;5036584;28;20030;-66
2022/06/02 00:17:29;;;;;;;6.07;3.58;;;24.30;59.40;;;;;;5036067;28;19906;-66
2022/06/02 00:20:18;;;;;;;5.97;2.90;;;24.30;58.20;;;;;;5035818;28;20564;-66
2022/06/02 00:22:46;;;;;;;3.63;2.95;;;24.30;58.30;;;;;;5036381;28;20076;-66
2022/06/02 00:25:40;;;;;;;4.97;3.38;;;24.30;58.30;;;;;;5035647;28;20021;-65
2022/06/02 00:28:12;;;;;;;3.10;2.78;;;24.30;58.60;;;;;;5033879;28;20462;-65
2022/06/02 00:31:19;;;;;;;5.65;3.20;;;24.30;58.50;;;;;;5035712;28;20065;-67
2022/06/02 00:34:02;;;;;;;4.13;3.13;;;24.20;58.70;;;;;;5042029;28;20033;-65
2022/06/02 00:36:43;;;;;;;5.75;3.15;;;24.20;58.40;;;;;;5035653;28;20029;-69
2022/06/02 00:39:09;;;;;;;5.82;2.88;;;24.20;58.90;;;;;;5034150;28;20091;-66
2022/06/02 00:41:37;;;;;;;3.53;2.80;;;24.20;58.40;;;;;;5035569;28;20065;-66
2022/06/02 00:44:14;;;;;;;4.30;2.90;;;24.10;58.40;;;;;;5035041;28;20034;-66
2022/06/02 00:46:59;;;;;;;4.47;3.03;;;24.10;58.80;;;;;;5033642;28;20504;-66
2022/06/02 00:49:58;;;;;;;4.90;2.83;;;24.10;58.70;;;;;;5035648;28;20021;-64
2022/06/02 00:52:47;;;;;;;4.43;2.70;;;24.10;58.80;;;;;;5035110;28;20025;-64
2022/06/02 00:58:57;;;;;;;3.83;2.90;;;24.10;58.70;;;;;;5034139;28;20147;-67
2022/06/02 01:01:35;;;;;;;3.88;2.95;;;24.10;58.40;;;;;;5044144;28;20080;-67
2022/06/02 01:04:05;;;;;;;5.30;2.72;;;24.00;58.50;;;;;;5035231;28;20478;-65
2022/06/02 01:07:02;;;;;;;3.97;3.10;;;24.00;58.40;;;;;;5035184;28;20029;-66
2022/06/02 01:09:47;;;;;;;5.38;3.13;;;24.00;58.60;;;;;;5034990;28;20029;-68
2022/06/02 01:12:43;;;;;;;8.00;3.20;;;23.90;58.60;;;;;;5035080;28;20039;-66
2022/06/02 01:15:39;;;;;;;5.05;3.50;;;23.80;58.80;;;;;;5034950;28;20353;-66
2022/06/02 01:18:33;;;;;;;6.00;3.25;;;23.70;59.60;;;;;;5034532;28;20391;-66
2022/06/02 01:21:21;;;;;;;4.43;2.95;;;23.60;60.10;;;;;;5034589;28;20353;-66
2022/06/02 01:24:18;;;;;;;3.53;3.05;;;23.50;60.10;;;;;;5033804;28;20068;-66
2022/06/02 01:27:25;;;;;;;5.75;3.25;;;23.50;60.30;;;;;;5035575;28;20034;-65
2022/06/02 01:30:12;;;;;;;4.85;3.10;;;23.40;60.70;;;;;;5033085;28;20050;-64
2022/06/02 01:33:05;;;;;;;5.72;3.13;;;23.30;59.80;;;;;;5034528;28;20040;-66
2022/06/02 01:36:10;;;;;;;4.03;3.10;;;23.30;61.20;;;;;;5034327;28;20030;-66
2022/06/02 01:39:01;;;;;;;4.10;3.10;;;23.20;60.20;;;;;;5034485;28;20104;-65
2022/06/02 01:41:30;;;;;;;4.68;3.00;;;23.20;60.20;;;;;;5034586;28;20135;-66
2022/06/02 01:44:13;;;;;;;6.00;2.85;;;23.20;60.00;;;;;;5034389;28;20026;-65
2022/06/02 01:46:42;;;;;;;2.50;2.30;;;23.30;60.60;;;;;;5034575;28;20036;-66
2022/06/02 01:49:36;;;;;;;3.60;2.83;;;23.30;60.10;;;;;;5032946;28;20037;-65
2022/06/02 01:52:42;;;;;;;5.10;3.13;;;23.30;60.50;;;;;;5034769;28;20533;-65
2022/06/02 01:55:10;;;;;;;4.53;3.10;;;23.30;60.20;;;;;;5032779;28;20032;-68
2022/06/02 01:57:46;;;;;;;3.80;3.03;;;23.30;60.00;;;;;;5034465;28;20029;-65
2022/06/02 02:00:16;;;;;;;3.83;2.95;;;23.30;60.10;;;;;;5032972;28;20490;-66
2022/06/02 02:02:47;;;;;;;4.03;3.15;;;23.30;60.00;;;;;;5032972;28;20473;-66
2022/06/02 02:05:25;;;;;;;5.00;3.33;;;23.30;60.00;;;;;;5032842;28;20385;-67
2022/06/02 02:08:08;;;;;;;4.55;3.13;;;23.30;60.30;;;;;;5034028;28;20029;-71
2022/06/02 02:11:09;;;;;;;5.13;3.40;;;23.30;60.80;;;;;;5032645;28;20032;-67
2022/06/02 02:13:45;;;;;;;5.32;3.58;;;23.30;60.20;;;;;;5037395;28;20038;-67
2022/06/02 02:16:47;;;;;;;5.78;3.58;;;23.30;60.10;;;;;;5033748;28;20022;-69
2022/06/02 02:19:28;;;;;;;4.80;3.45;;;23.30;60.20;;;;;;5033949;28;20480;-67
2022/06/02 02:22:11;;;;;;;5.18;3.85;;;23.30;60.30;;;;;;5033636;28;20048;-67
2022/06/02 02:25:04;;;;;;;4.80;3.67;;;23.20;60.30;;;;;;5033476;28;20152;-66
2022/06/02 02:28:02;;;;;;;4.78;3.88;;;23.20;60.90;;;;;;5020911;28;20026;-65
2022/06/02 02:30:43;;;;;;;4.38;3.88;;;23.30;60.40;;;;;;5012768;28;20084;-67
2022/06/02 02:33:44;;;;;;;5.85;3.78;;;23.30;60.50;;;;;;5012109;28;20080;-67
2022/06/02 02:36:47;;;;;;;4.55;3.70;;;23.30;60.60;;;;;;5014076;28;20038;-67
2022/06/02 02:39:23;;;;;;;4.45;3.80;;;23.30;60.60;;;;;;5013878;28;20034;-66
2022/06/02 02:41:52;;;;;;;4.50;3.55;;;23.30;60.50;;;;;;5012483;28;20034;-66
2022/06/02 02:44:34;;;;;;;4.55;3.78;;;23.30;60.40;;;;;;5013566;28;20026;-66
2022/06/02 02:47:10;;;;;;;4.32;3.70;;;23.30;60.40;;;;;;5013691;28;20048;-66
2022/06/02 02:49:54;;;;;;;4.53;3.63;;;23.30;60.40;;;;;;5013877;28;20033;-66
2022/06/02 02:52:38;;;;;;;4.82;4.03;;;23.30;60.50;;;;;;5013953;28;20480;-68
2022/06/02 02:55:15;;;;;;;4.63;4.00;;;23.40;60.50;;;;;;5014082;28;20026;-66
2022/06/02 02:57:50;;;;;;;4.78;4.28;;;23.30;60.40;;;;;;5012827;28;20037;-67
2022/06/02 03:00:23;;;;;;;4.82;4.10;;;23.30;60.40;;;;;;5012133;28;20173;-65
2022/06/02 03:02:55;;;;;;;6.85;4.35;;;23.30;60.50;;;;;;5012323;28;20036;-67
2022/06/02 03:05:38;;;;;;;4.85;4.00;;;23.30;60.50;;;;;;5012605;28;20103;-68
2022/06/02 03:08:19;;;;;;;5.63;4.40;;;23.30;60.60;;;;;;5012475;28;20026;-66
2022/06/02 03:10:51;;;;;;;5.78;4.43;;;23.30;60.80;;;;;;5012113;28;20402;-66
2022/06/02 03:13:31;;;;;;;4.55;4.15;;;23.20;60.70;;;;;;5013937;28;20022;-66
2022/06/02 03:16:09;;;;;;;5.28;4.30;;;23.30;60.80;;;;;;5012086;28;20030;-66
2022/06/02 03:19:12;;;;;;;5.15;4.03;;;23.20;60.90;;;;;;5012978;28;20040;-67
2022/06/02 03:21:54;;;;;;;5.25;4.18;;;23.20;61.00;;;;;;5012990;28;20026;-67
2022/06/02 03:24:41;;;;;;;4.75;4.03;;;23.30;61.00;;;;;;5012220;28;20034;-67
2022/06/02 03:27:26;;;;;;;4.63;4.13;;;23.30;60.80;;;;;;5012403;28;20034;-66
2022/06/02 03:30:13;;;;;;;4.65;3.95;;;23.30;60.90;;;;;;5013282;28;20069;-65
2022/06/02 03:32:45;;;;;;;4.63;3.90;;;23.40;60.90;;;;;;5011901;28;20472;-69
2022/06/02 03:35:24;;;;;;;5.95;4.15;;;23.40;60.90;;;;;;5013465;28;20076;-66
2022/06/02 03:37:56;;;;;;;4.60;4.10;;;23.40;60.90;;;;;;5012393;28;20126;-67
2022/06/02 03:40:34;;;;;;;6.82;4.72;;;23.40;61.00;;;;;;5012083;28;20425;-67
2022/06/02 03:43:14;;;;;;;6.07;4.40;;;23.50;61.10;;;;;;5015282;28;20026;-67
2022/06/02 03:45:42;;;;;;;5.55;4.53;;;23.50;61.10;;;;;;5015678;28;20038;-66
2022/06/02 03:48:29;;;;;;;6.57;4.18;;;23.50;61.10;;;;;;5016351;28;20037;-66
2022/06/02 03:51:16;;;;;;;4.35;3.88;;;23.50;61.20;;;;;;5016709;28;20399;-67
2022/06/02 03:54:11;;;;;;;5.05;3.78;;;23.50;61.30;;;;;;5015692;28;20026;-67
2022/06/02 03:56:56;;;;;;;6.07;4.80;;;23.60;61.50;;;;;;5016572;28;20066;-67
2022/06/02 03:59:27;;;;;;;;;;;23.60;61.20;;;;;;5017041;28;20096;-65
2022/06/02 04:02:02;;;;;;;4.07;3.65;;;23.60;62.00;;;;;;5030132;28;19920;-67
2022/06/02 04:05:02;;;;;;;6.00;3.95;;;23.60;61.90;;;;;;5036054;28;20376;-66
2022/06/02 04:07:40;;;;;;;5.30;4.20;;;23.60;61.40;;;;;;5035746;28;20108;-66
2022/06/02 04:10:18;;;;;;;4.93;4.03;;;23.60;61.40;;;;;;5035236;28;20116;-66
2022/06/02 04:15:58;;;;;;;5.75;3.65;;;23.70;61.70;;;;;;5035826;28;20037;-66
2022/06/02 04:18:29;;;;;;;5.07;4.05;;;23.70;61.50;;;;;;5035605;28;20028;-66
2022/06/02 04:21:18;;;;;;;4.55;3.70;;;23.70;61.60;;;;;;5035007;28;20025;-66
2022/06/02 04:23:59;;;;;;;5.30;4.45;;;23.80;62.20;;;;;;5035897;28;20472;-66
2022/06/02 04:26:59;;;;;;;5.07;4.10;;;23.80;61.80;;;;;;5034553;28;20083;-66
2022/06/02 04:30:02;;;;;;;5.68;4.32;;;23.80;62.20;;;;;;5034307;28;20056;-66
2022/06/02 04:32:39;;;;;;;5.88;4.28;;;23.90;62.00;;;;;;5035333;28;20072;-66
2022/06/02 04:35:43;;;;;;;6.20;4.20;;;23.90;61.70;;;;;;5030941;28;20468;-67
2022/06/02 04:38:27;;;;;;;4.82;4.10;;;23.90;62.10;;;;;;5034765;28;20025;-67
2022/06/02 04:41:00;;;;;;;5.53;4.60;;;24.00;61.80;;;;;;5023617;28;20025;-66
2022/06/02 04:44:13;;;;;;;5.72;4.35;;;24.00;61.90;;;;;;5015596;28;20117;-66
2022/06/02 04:46:59;;;;;;;5.63;4.10;;;24.00;62.20;;;;;;5028265;28;20392;-66
2022/06/02 04:49:38;;;;;;;4.93;4.20;;;24.00;62.10;;;;;;5015489;28;20037;-66
2022/06/02 04:52:16;;;;;;;4.88;3.80;;;24.10;61.90;;;;;;5019140;28;20318;-68
2022/06/02 04:55:16;;;;;;;4.38;3.90;;;24.10;62.10;;;;;;5014913;28;20460;-69
2022/06/02 04:58:14;;;;;;;6.00;3.80;;;24.10;61.90;;;;;;5021427;28;20448;-66
2022/06/02 05:00:51;;;;;;;6.68;3.90;;;24.20;62.00;;;;;;5034700;28;20038;-66
2022/06/02 05:03:33;;;;;;;5.05;3.72;;;24.20;61.90;;;;;;5026886;28;20483;-66
2022/06/02 05:06:23;;;;;;;5.07;3.60;;;24.20;61.90;;;;;;5034900;28;20472;-67
2022/06/02 05:09:30;;;;;;;5.65;3.60;;;24.30;61.80;;;;;;5014001;28;20034;-65
2022/06/02 05:12:12;;;;;;;6.03;3.85;;;24.30;61.70;;;;;;5015401;28;20056;-67
2022/06/02 05:14:58;;;;;;;5.10;3.60;;;24.30;61.40;;;;;;5015034;28;20109;-67
2022/06/02 05:17:53;;;;;;;4.53;3.30;;;24.40;61.30;;;;;;5026726;28;20356;-67
2022/06/02 05:20:43;;;;;;;5.00;3.47;;;24.40;61.20;;;;;;5040561;28;20103;-67
2022/06/02 05:23:27;;;;;;;4.28;3.53;;;24.40;61.10;;;;;;5034710;28;20061;-67
2022/06/02 05:26:01;;;;;;;4.87;3.33;;;24.40;61.10;;;;;;5014936;28;20030;-65
2022/06/02 05:28:45;;;;;;;5.10;3.35;;;24.50;61.00;;;;;;5015841;28;20064;-68
2022/06/02 05:31:30;;;;;;;4.88;3.60;;;24.50;60.80;;;;;;5019190;28;20057;-65
2022/06/02 05:34:24;;;;;;;5.30;3.17;;;24.50;60.80;;;;;;5016693;28;20037;-66
2022/06/02 05:37:08;;;;;;;;;;;24.50;60.70;;;;;;5027006;28;20117;-67
2022/06/02 05:39:52;;;;;;;3.20;2.45;;;24.60;60.90;;;;;;5023586;28;19913;-68
2022/06/02 05:42:24;;;;;;;4.07;3.10;;;24.60;60.60;;;;;;5020944;28;20038;-68
2022/06/02 05:44:55;;;;;;;3.33;3.03;;;24.70;60.60;;;;;;5032838;28;20037;-70
2022/06/02 05:48:05;;;;;;;4.97;3.30;;;24.70;60.50;;;;;;5032720;28;20120;-70
2022/06/02 05:50:34;;;;;;;5.80;2.92;;;24.70;60.50;;;;;;5016624;28;20101;-68
2022/06/02 05:53:02;;;;;;;3.88;3.25;;;24.80;60.40;;;;;;5022188;28;20771;-67
2022/06/02 05:55:31;;;;;;;5.00;3.22;;;24.80;60.30;;;;;;5017162;28;20113;-67
2022/06/02 05:58:36;;;;;;;4.30;3.17;;;24.90;60.30;;;;;;5020545;28;20030;-65
2022/06/02 06:01:42;;;;;;;3.35;2.88;;;24.90;60.40;;;;;;5019110;28;20129;-65
2022/06/02 06:04:40;;;;;;;3.25;2.80;;;24.90;60.40;;;;;;5035042;28;20026;-69
2022/06/02 06:07:25;;;;;;;4.35;3.40;;;25.00;60.30;;;;;;5020888;28;20033;-65
2022/06/02 06:09:51;;;;;;;6.13;3.10;;;25.00;60.20;;;;;;5021081;28;20029;-67
2022/06/02 06:12:48;;;;;;;4.30;3.38;;;25.00;60.10;;;;;;5019608;28;20030;-67
2022/06/02 06:15:35;;;;;;;4.55;3.30;;;25.10;60.20;;;;;;5016406;28;20460;-66
2022/06/02 06:18:25;;;;;;;3.47;3.13;;;25.10;60.10;;;;;;5031153;28;20037;-67
2022/06/02 06:21:09;;;;;;;5.53;3.70;;;25.10;60.00;;;;;;5033169;28;20116;-66
2022/06/02 06:24:08;;;;;;;4.80;3.13;;;25.10;59.90;;;;;;5032931;28;20479;-65
2022/06/02 06:26:54;;;;;;;3.78;3.20;;;25.10;59.90;;;;;;5033270;28;20025;-65
2022/06/02 06:29:39;;;;;;;4.15;3.17;;;25.10;59.80;;;;;;5023906;28;20049;-67
2022/06/02 06:32:19;;;;;;;4.15;3.10;;;25.20;59.90;;;;;;5015080;28;20380;-68
2022/06/02 06:35:23;;;;;;;3.97;3.13;;;25.20;59.80;;;;;;5025408;28;20041;-68
2022/06/02 06:38:06;;;;;;;5.70;3.55;;;25.20;59.80;;;;;;5018298;28;20040;-71
2022/06/02 06:40:56;;;;;;;6.35;3.47;;;25.20;59.60;;;;;;5025284;28;20385;-71
2022/06/02 06:43:59;;;;;;;7.28;3.20;;;25.30;59.70;;;;;;5018966;28;20053;-68
2022/06/02 06:46:49;;;;;;;4.00;3.00;;;25.30;59.70;;;;;;5010806;28;20034;-69
2022/06/02 06:49:22;;;;;;;4.80;3.17;;;25.30;59.60;;;;;;5012251;28;20045;-69
2022/06/02 06:52:18;;;;;;;6.50;3.30;;;25.40;59.80;;;;;;5012030;28;20088;-69
2022/06/02 06:55:01;;;;;;;6.18;3.40;;;25.40;59.70;;;;;;5016953;28;20022;-72
2022/06/02 06:58:02;;;;;;;3.80;3.40;;;25.40;59.70;;;;;;5028696;28;20026;-68
2022/06/02 07:00:49;;;;;;;5.13;3.17;;;25.40;59.80;;;;;;5024155;28;20030;-67
2022/06/02 07:03:32;;;;;;;3.88;3.05;;;25.40;59.70;;;;;;5015817;28;20030;-71
2022/06/02 07:06:07;;;;;;;4.93;3.40;;;25.50;59.80;;;;;;5016772;28;20043;-73
2022/06/02 07:09:01;;;;;;;3.58;3.17;;;25.50;59.70;;;;;;5011507;28;20365;-71
2022/06/02 07:14:25;;;;;;;3.40;3.10;;;25.50;59.70;;;;;;5012593;28;20536;-68
2022/06/02 07:16:56;;;;;;;5.72;3.55;;;25.50;59.70;;;;;;5015479;28;20053;-70
2022/06/02 07:20:05;;;;;;;3.90;3.50;;;25.50;59.80;;;;;;5017104;28;20484;-71
2022/06/02 07:22:46;;;;;;;4.80;3.78;;;25.60;60.00;;;;;;5014610;28;20038;-70
2022/06/02 07:25:29;;;;;;;4.72;3.30;;;25.60;59.90;;;;;;5015945;28;20124;-70
2022/06/02 07:28:22;;;;;;;5.07;3.50;;;25.60;59.90;;;;;;5016866;28;20448;-70
2022/06/02 07:31:22;;;;;;;4.15;3.35;;;25.60;59.90;;;;;;5015848;28;20080;-72
2022/06/02 07:34:21;;;;;;;5.82;3.50;;;25.60;59.90;;;;;;5017046;28;20033;-71
2022/06/02 07:37:18;;;;;;;4.18;3.58;;;25.60;59.90;;;;;;5015577;28;20022;-75
2022/06/02 07:40:06;;;;;;;4.45;3.22;;;25.70;59.90;;;;;;5015612;28;20022;-71
2022/06/02 07:42:58;;;;;;;4.28;3.28;;;25.70;60.40;;;;;;5015501;28;20611;-70
2022/06/02 07:45:31;;;;;;;4.65;3.97;;;25.70;59.70;;;;;;5016621;28;20033;-71
2022/06/02 07:48:26;;;;;;;4.85;3.60;;;25.80;59.70;;;;;;5016518;28;20061;-70
2022/06/02 07:51:18;;;;;;;4.72;3.42;;;25.80;59.40;;;;;;5015362;28;20419;-70
2022/06/02 07:54:22;;;;;;;5.43;3.75;;;25.80;59.20;;;;;;5015818;28;20113;-70
2022/06/02 07:57:00;;;;;;;4.20;3.53;;;25.90;59.10;;;;;;5014611;28;20507;-74
2022/06/02 07:59:46;;;;;;;4.40;3.53;;;25.90;59.10;;;;;;5014907;28;20368;-72
2022/06/02 08:02:24;;;;;;;4.40;3.20;;;25.90;59.10;;;;;;5016133;28;20121;-73
2022/06/02 08:05:05;;;;;;;5.93;3.85;;;25.90;59.10;;;;;;5016266;28;20026;-67
2022/06/02 08:07:45;;;;;;;4.20;3.22;;;25.90;59.00;;;;;;5016052;28;20373;-71
2022/06/02 08:10:22;;;;;;;5.18;3.40;;;25.90;59.00;;;;;;5016515;28;20030;-70
2022/06/02 08:13:27;;;;;;;3.35;2.83;;;25.90;59.00;;;;;;5016037;28;20049;-71
2022/06/02 08:16:15;;;;;;;4.07;2.67;;;25.90;58.70;;;;;;5033641;28;20067;-70
2022/06/02 08:18:51;;;;;;;3.80;3.20;;;25.90;58.70;;;;;;5017324;28;20029;-70
2022/06/02 08:21:40;;;;;;;4.45;2.92;;;26.00;58.80;;;;;;5021489;28;20054;-71
2022/06/02 08:24:43;;;;;;;5.00;3.38;;;26.00;58.60;;;;;;5016075;28;20076;-71
2022/06/02 08:27:50;;;;;;;3.78;2.92;;;26.00;58.40;;;;;;5015667;28;20084;-71
2022/06/02 08:30:25;;;;;;;3.45;3.08;;;26.00;58.40;;;;;;5033356;28;20488;-71
2022/06/02 08:33:03;;;;;;;3.78;2.90;;;26.10;58.50;;;;;;5014863;28;20042;-70
2022/06/02 08:35:47;;;;;;;3.20;2.65;;;26.10;58.40;;;;;;5015602;28;20027;-71
2022/06/02 08:38:40;;;;;;;4.70;3.25;;;26.10;58.30;;;;;;5014531;28;20050;-71
2022/06/02 08:41:30;;;;;;;4.45;2.97;;;26.10;58.30;;;;;;5015313;28;20177;-71
2022/06/02 08:44:05;;;;;;;3.00;2.70;;;26.10;58.20;;;;;;5015466;28;20026;-71
2022/06/02 08:47:08;;;;;;;4.03;3.00;;;26.10;58.20;;;;;;5014495;28;20037;-70
2022/06/02 08:49:42;;;;;;;3.10;2.58;;;26.10;57.90;;;;;;5015751;28;20116;-70
2022/06/02 08:52:26;;;;;;;4.85;2.70;;;26.20;58.00;;;;;;5015885;28;20105;-69
2022/06/02 08:55:06;;;;;;;4.33;2.90;;;26.20;58.00;;;;;;5015405;28;20033;-70
2022/06/02 08:57:56;;;;;;;4.20;2.88;;;26.20;57.90;;;;;;5015259;28;20452;-69
2022/06/02 09:00:45;;;;;;;4.30;2.70;;;26.20;57.90;;;;;;5015526;28;20033;-71
2022/06/02 09:03:52;;;;;;;5.00;2.80;;;26.30;57.80;;;;;;5015226;28;20044;-71
2022/06/02 09:06:42;;;;;;;2.83;2.35;;;26.30;57.60;;;;;;5010014;28;20069;-70
2022/06/02 09:09:16;;;;;;;2.75;2.50;;;26.30;57.70;;;;;;5013364;28;20029;-74
2022/06/02 09:11:42;;;;;;;6.30;3.00;;;26.30;57.70;;;;;;5013982;28;20104;-71
2022/06/02 09:14:19;;;;;;;3.10;2.40;;;26.30;57.70;;;;;;5014936;28;20026;-68
2022/06/02 09:16:57;;;;;;;3.60;2.72;;;26.40;57.70;;;;;;5014950;28;20512;-70
2022/06/02 09:19:42;;;;;;;4.57;2.75;;;26.30;57.60;;;;;;5014847;28;20037;-71
2022/06/02 09:22:12;;;;;;;3.83;2.45;;;26.40;57.60;;;;;;5014686;28;20038;-69
2022/06/02 09:24:44;;;;;;;7.07;3.50;;;26.40;57.60;;;;;;5014637;28;20058;-71
2022/06/02 09:27:48;;;;;;;5.25;3.58;;;26.40;57.50;;;;;;5013544;28;20030;-68
2022/06/02 09:30:34;;;;;;;4.95;3.00;;;26.50;57.40;;;;;;5014895;28;20500;-72
2022/06/02 09:33:33;;;;;;;5.80;2.95;;;26.50;57.40;;;;;;5014701;28;20030;-70
2022/06/02 09:36:21;;;;;;;2.72;2.50;;;26.60;57.40;;;;;;5013874;28;20101;-70
2022/06/02 09:39:08;;;;;;;3.38;2.70;;;26.60;57.30;;;;;;5014889;28;20034;-72
2022/06/02 09:41:46;;;;;;;3.90;2.80;;;26.70;57.30;;;;;;5014219;28;20065;-72
2022/06/02 09:44:36;;;;;;;5.93;3.30;;;26.70;57.10;;;;;;5014946;28;20376;-72
2022/06/02 09:47:20;;;;;;;5.85;3.28;;;26.70;57.00;;;;;;5014680;28;20037;-73
2022/06/02 09:50:10;;;;;;;2.92;2.63;;;26.70;56.80;;;;;;5014476;28;20030;-72
2022/06/02 09:52:47;;;;;;;3.38;2.70;;;26.70;57.00;;;;;;5014222;28;20076;-71
2022/06/02 09:55:37;;;;;;;4.63;3.00;;;26.70;57.00;;;;;;5012877;28;20113;-69
2022/06/02 09:58:32;;;;;;;3.58;2.67;;;26.70;56.80;;;;;;5014311;28;20022;-71
2022/06/02 10:01:12;;;;;;;;;;;26.70;56.80;;;;;;5013189;28;20045;-76
2022/06/02 10:04:18;;;;;;;4.57;2.90;;;26.70;56.40;;;;;;5025096;28;19909;-71
2022/06/02 10:07:05;;;;;;;3.53;2.53;;;26.70;56.30;;;;;;5035633;28;20458;-72
2022/06/02 10:09:54;;;;;;;5.28;2.80;;;26.70;56.50;;;;;;5033958;28;20032;-71
2022/06/02 10:12:55;;;;;;;4.60;2.97;;;26.70;56.70;;;;;;5033455;28;20026;-71
2022/06/02 10:15:50;;;;;;;3.75;2.60;;;26.70;56.50;;;;;;5034170;28;20025;-71
2022/06/02 10:18:19;;;;;;;6.13;2.83;;;26.70;56.60;;;;;;5033879;28;20032;-72
2022/06/02 10:21:08;;;;;;;3.40;2.63;;;26.70;56.70;;;;;;5033731;28;20030;-71
2022/06/02 10:24:07;;;;;;;4.43;2.78;;;26.70;56.50;;;;;;5035999;28;20539;-71
2022/06/02 10:26:55;;;;;;;3.60;2.50;;;26.70;56.70;;;;;;5033450;28;20432;-71
2022/06/02 10:29:40;;;;;;;4.22;2.30;;;26.70;56.60;;;;;;5032061;28;20048;-72
2022/06/02 10:32:43;;;;;;;4.63;2.80;;;26.70;56.60;;;;;;5033396;28;20033;-72
2022/06/02 10:35:46;;;;;;;6.15;2.80;;;26.80;56.60;;;;;;5033414;28;20034;-70
2022/06/02 10:38:30;;;;;;;3.85;2.80;;;26.80;56.60;;;;;;5033940;28;20037;-72
2022/06/02 10:41:20;;;;;;;3.83;2.88;;;26.80;56.60;;;;;;5032001;28;20063;-72
2022/06/02 10:44:07;;;;;;;4.03;2.78;;;26.80;56.50;;;;;;5033328;28;20037;-70
2022/06/02 10:47:15;;;;;;;4.15;2.80;;;26.80;56.40;;;;;;5033723;28;20033;-70
2022/06/02 10:50:19;;;;;;;3.40;2.40;;;26.90;56.30;;;;;;5039403;28;20128;-70
2022/06/02 10:53:01;;;;;;;3.30;2.40;;;26.90;56.30;;;;;;5043885;28;20430;-71
2022/06/02 10:55:34;;;;;;;3.22;2.60;;;26.90;56.10;;;;;;5037471;28;20030;-71
2022/06/02 10:58:30;;;;;;;3.47;2.40;;;26.90;56.30;;;;;;5037280;28;20439;-72
2022/06/02 11:01:12;;;;;;;4.28;2.85;;;26.90;56.20;;;;;;5037726;28;20285;-71
2022/06/02 11:03:53;;;;;;;4.63;2.65;;;27.00;56.10;;;;;;5037272;28;20037;-69
2022/06/02 11:06:40;;;;;;;3.05;2.42;;;27.00;56.00;;;;;;5035903;28;20025;-71
2022/06/02 11:09:27;;;;;;;3.15;2.70;;;27.00;56.00;;;;;;5036998;28;20032;-71
2022/06/02 11:12:20;;;;;;;2.70;2.38;;;27.10;55.70;;;;;;5037375;28;20037;-71
2022/06/02 11:15:23;;;;;;;4.85;2.60;;;27.10;55.80;;;;;;5037050;28;20102;-70
2022/06/02 11:18:06;;;;;;;4.00;2.50;;;27.10;55.40;;;;;;5037139;28;20373;-71
2022/06/02 11:21:22;;;;;;;3.50;2.60;;;27.10;55.50;;;;;;5035750;28;20029;-70
2022/06/02 11:24:09;;;;;;;3.15;2.55;;;27.20;55.40;;;;;;5046691;28;20046;-70
2022/06/02 11:26:41;;;;;;;3.20;2.22;;;27.20;55.10;;;;;;5036748;28;20076;-70
2022/06/02 11:29:15;;;;;;;4.85;2.70;;;27.20;55.40;;;;;;5036695;28;20049;-71
2022/06/02 11:31:44;;;;;;;4.25;2.20;;;27.30;55.30;;;;;;5036452;28;20025;-71
2022/06/02 11:34:48;;;;;;;3.42;2.60;;;27.30;55.30;;;;;;5036548;28;20029;-71
2022/06/02 11:37:49;;;;;;;3.30;2.33;;;27.30;54.80;;;;;;5034442;28;20541;-70
2022/06/02 11:40:28;;;;;;;3.05;2.30;;;27.30;55.00;;;;;;5053811;28;20041;-72
2022/06/02 11:43:07;;;;;;;6.47;2.70;;;27.40;55.00;;;;;;5038387;28;20128;-71
2022/06/02 11:46:00;;;;;;;2.75;2.30;;;27.40;54.80;;;;;;5036781;28;20091;-71
2022/06/02 11:48:44;;;;;;;4.53;2.60;;;27.40;54.70;;;;;;5036243;28;20395;-72
2022/06/02 11:51:39;;;;;;;5.50;2.58;;;27.40;54.80;;;;;;5036859;28;20422;-71
2022/06/02 11:54:46;;;;;;;6.05;2.40;;;27.50;54.70;;;;;;5036452;28;20032;-71
2022/06/02 11:57:40;;;;;;;2.17;1.98;;;27.50;54.30;;;;;;5035509;28;20084;-70
2022/06/02 12:00:30;;;;;;;2.60;2.10;;;27.60;54.40;;;;;;5035042;28;20030;-71
2022/06/02 12:03:15;;;;;;;3.75;2.25;;;27.60;53.80;;;;;;5035203;28;20041;-71
2022/06/02 12:06:19;;;;;;;3.28;2.00;;;27.70;53.90;;;;;;5036044;28;20040;-71
2022/06/02 12:09:30;;;;;;;3.72;2.38;;;27.70;53.80;;;;;;5036172;28;20029;-69
2022/06/02 12:12:14;;;;;;;3.20;1.90;;;27.80;53.60;;;;;;5036441;28;20029;-71
2022/06/02 12:15:33;;;;;;;2.15;1.95;;;27.80;53.90;;;;;;5036498;28;20155;-71
2022/06/02 12:18:08;;;;;;;2.95;1.90;;;27.90;53.30;;;;;;5053559;28;20047;-71
2022/06/02 12:21:01;;;;;;;2.83;2.03;;;28.00;53.60;;;;;;5036471;28;20468;-68
2022/06/02 12:23:37;;;;;;;3.05;1.75;;;28.10;53.20;;;;;;5035905;28;20175;-71
2022/06/02 12:26:16;;;;;;;2.35;2.00;;;28.20;53.20;;;;;;5035656;28;20025;-71
2022/06/02 12:29:03;;;;;;;2.45;1.98;;;28.20;53.20;;;;;;5034418;28;20042;-71
2022/06/02 12:32:16;;;;;;;4.10;2.15;;;28.30;52.90;;;;;;5034355;28;20061;-70
2022/06/02 12:34:56;;;;;;;2.78;1.70;;;28.40;52.30;;;;;;5035402;28;20482;-70
2022/06/02 12:37:25;;;;;;;2.45;1.85;;;28.50;52.20;;;;;;5035694;28;20079;-70
2022/06/02 12:40:13;;;;;;;3.03;1.90;;;28.50;52.40;;;;;;5035518;28;20025;-72
2022/06/02 12:43:06;;;;;;;2.50;1.55;;;28.60;52.30;;;;;;5035373;28;20029;-70
2022/06/02 12:45:48;;;;;;;2.20;1.83;;;28.70;52.00;;;;;;5035537;28;20025;-71
2022/06/02 12:48:35;;;;;;;3.35;1.60;;;28.70;51.80;;;;;;5035149;28;20037;-71
2022/06/02 12:51:28;;;;;;;2.67;1.60;;;28.70;51.60;;;;;;5035235;28;20033;-70
2022/06/02 12:54:14;;;;;;;2.88;2.00;;;28.80;51.40;;;;;;5035354;28;20033;-69
2022/06/02 12:56:52;;;;;;;2.85;1.67;;;28.80;51.40;;;;;;5035163;28;20033;-71
2022/06/02 12:59:46;;;;;;;5.82;1.80;;;28.90;51.60;;;;;;5035161;28;20049;-71
2022/06/02 13:02:17;;;;;;;1.58;1.33;;;29.00;50.90;;;;;;5034995;28;20067;-73
2022/06/02 13:04:49;;;;;;;3.20;1.70;;;29.10;51.30;;;;;;5035194;28;20482;-68
2022/06/02 13:07:39;;;;;;;1.67;1.58;;;29.20;51.20;;;;;;5034915;28;20025;-69
2022/06/02 13:10:41;;;;;;;2.70;1.60;;;29.30;51.00;;;;;;5034277;28;20076;-71
2022/06/02 13:13:49;;;;;;;2.60;1.90;;;29.50;50.60;;;;;;5035063;28;20353;-71
2022/06/02 13:16:17;;;;;;;2.10;1.50;;;29.60;50.60;;;;;;5033498;28;20041;-71
2022/06/02 13:19:25;;;;;;;3.13;1.80;;;29.80;50.60;;;;;;5034597;28;20354;-71
2022/06/02 13:22:15;;;;;;;1.40;1.25;;;30.00;50.00;;;;;;5034605;28;20444;-71
2022/06/02 13:25:20;;;;;;;2.35;1.70;;;30.20;50.10;;;;;;5035104;28;20452;-71
2022/06/02 13:28:09;;;;;;;2.65;1.30;;;30.30;49.50;;;;;;5041170;28;20072;-71
2022/06/02 13:30:47;;;;;;;2.72;1.77;;;30.60;49.50;;;;;;5034240;28;20072;-71
2022/06/02 13:33:49;;;;;;;2.08;1.52;;;30.80;49.40;;;;;;5034474;28;20097;-70
2022/06/02 13:36:23;;;;;;;1.52;1.35;;;31.10;48.60;;;;;;5034349;28;20025;-71
2022/06/02 13:39:26;;;;;;;2.97;1.70;;;31.60;48.60;;;;;;5034105;28;20022;-71
2022/06/02 13:42:03;;;;;;;4.13;1.92;;;32.10;48.00;;;;;;5034448;28;20033;-71
2022/06/02 13:44:45;;;;;;;2.55;1.67;;;32.50;47.60;;;;;;5033099;28;20029;-71
2022/06/02 13:47:44;;;;;;;2.60;1.77;;;32.60;47.40;;;;;;5034199;28;20375;-71
2022/06/02 13:50:34;;;;;;;4.32;1.80;;;32.50;46.60;;;;;;5034043;28;20028;-72
2022/06/02 13:53:15;;;;;;;3.03;1.75;;;32.40;46.90;;;;;;5034332;28;20380;-71
2022/06/02 13:59:05;;;;;;;1.70;1.55;;;32.50;46.90;;;;;;5033959;28;20127;-71
2022/06/02 14:01:34;;;;;;;4.75;1.95;;;32.40;47.50;;;;;;5032711;28;20396;-70
2022/06/02 14:04:34;;;;;;;2.00;1.80;;;32.50;48.30;;;;;;5033764;28;20033;-70
2022/06/02 14:07:28;;;;;;;5.38;2.22;;;33.10;47.10;;;;;;5032117;28;20076;-70
2022/06/02 14:10:14;;;;;;;2.55;1.73;;;33.90;48.30;;;;;;5033793;28;20031;-71
2022/06/02 14:13:13;;;;;;;4.18;2.30;;;34.60;48.10;;;;;;5042378;28;20065;-71
2022/06/02 14:15:45;;;;;;;3.22;1.88;;;35.10;46.10;;;;;;5034037;28;20026;-71
2022/06/02 14:18:44;;;;;;;3.30;1.90;;;35.20;46.70;;;;;;5033786;28;20025;-72
2022/06/02 14:21:22;;;;;;;3.33;1.98;;;35.50;46.50;;;;;;5033639;28;20037;-71
2022/06/02 14:24:07;;;;;;;5.15;2.13;;;35.90;46.00;;;;;;5033555;28;20077;-68
2022/06/02 14:27:05;;;;;;;3.63;2.10;;;36.40;45.60;;;;;;5033368;28;20474;-70
2022/06/02 14:29:44;;;;;;;3.03;2.00;;;37.00;44.80;;;;;;5032444;28;20045;-71
2022/06/02 14:32:19;;;;;;;3.47;1.90;;;37.50;45.40;;;;;;5033789;28;20044;-71
2022/06/02 14:34:48;;;;;;;4.32;2.08;;;37.80;44.90;;;;;;5033974;28;20068;-70
2022/06/02 14:37:21;;;;;;;3.22;1.80;;;38.10;44.40;;;;;;5033107;28;20034;-72
2022/06/02 14:40:08;;;;;;;3.45;1.80;;;38.30;44.00;;;;;;5033469;28;20051;-71